Terminal Aerodrome Forecast
Issued by NWS

Current Version | Previous Version | Graphics & Text | Print | Product List | Glossary On
Versions: 1 2 3 4 5 6 7 8 9 10 11 12 13 14 15 16 17 18 19 20 21
000
FTUS41 KRLX 232331
TAFCKB
TAF
KCKB 232331Z 2400/2424 13004KT P6SM SHRA OVC045
     FM240300 VRB03KT P6SM OVC040
     FM240500 VRB03KT P6SM BKN030
     FM241100 10005KT P6SM BKN020
     FM241700 13009KT P6SM OVC030
     FM242000 13009KT 6SM SHRA OVC030=

USA.gov is the U.S. government's official web portal to all federal, state and local government web resources and services.